Time;durP1;ratioP1;P1;durP2;ratioP2;P2;SDS_P1;SDS_P2;PMS_P1;PMS_P2;Temp;Humidity;BMP_temperature;BMP_pressure;BME280_temperature;BME280_humidity;BME280_pressure;Samples;Min_cycle;Max_cycle;Signal;HPM_P1;HPM_P2
2023/06/28 00:02:03;;;;;;;7.13;2.63;;;17.10;99.90;;;;;;4983990;28;20029;-82
2023/06/28 00:04:28;;;;;;;7.90;2.92;;;17.00;99.90;;;;;;4984369;28;20064;-82
2023/06/28 00:06:54;;;;;;;6.20;2.95;;;16.90;99.90;;;;;;4984469;28;20033;-82
2023/06/28 00:09:19;;;;;;;5.45;3.10;;;16.90;99.90;;;;;;4984187;28;20035;-81
2023/06/28 00:11:47;;;;;;;6.72;3.05;;;16.90;99.90;;;;;;4982705;28;20045;-80
2023/06/28 00:14:12;;;;;;;6.28;3.25;;;16.90;99.90;;;;;;4983717;28;20045;-80
2023/06/28 00:16:38;;;;;;;8.63;3.20;;;16.80;99.90;;;;;;4965411;28;20041;-81
2023/06/28 00:19:03;;;;;;;7.45;2.85;;;16.80;99.90;;;;;;4985383;28;20038;-80
2023/06/28 00:21:29;;;;;;;6.72;3.35;;;16.80;99.90;;;;;;4982787;28;20034;-81
2023/06/28 00:23:54;;;;;;;9.73;3.70;;;16.70;99.90;;;;;;4982901;28;20133;-81
2023/06/28 00:26:21;;;;;;;7.30;3.38;;;16.70;99.90;;;;;;4982338;28;20478;-81
2023/06/28 00:28:47;;;;;;;7.65;3.20;;;16.60;99.90;;;;;;4982134;28;20041;-81
2023/06/28 00:31:13;;;;;;;6.78;3.30;;;16.50;99.90;;;;;;4982577;28;20030;-80
2023/06/28 00:33:39;;;;;;;9.50;3.67;;;16.50;99.90;;;;;;4980303;28;20046;-80
2023/06/28 00:36:05;;;;;;;7.25;3.35;;;16.50;99.90;;;;;;4982421;28;20065;-81
2023/06/28 00:38:32;;;;;;;5.43;3.00;;;16.40;99.90;;;;;;4985658;28;20066;-81
2023/06/28 00:40:58;;;;;;;7.90;3.50;;;16.40;99.90;;;;;;4985024;28;20418;-81
2023/06/28 00:43:23;;;;;;;8.32;3.67;;;16.30;99.90;;;;;;4984105;28;20031;-79
2023/06/28 00:45:51;;;;;;;7.30;3.38;;;16.20;99.90;;;;;;4985156;28;20022;-81
2023/06/28 00:48:17;;;;;;;6.40;3.05;;;16.20;99.90;;;;;;4984914;28;20038;-81
2023/06/28 00:50:44;;;;;;;5.70;3.42;;;16.10;99.90;;;;;;4985149;28;20030;-80
2023/06/28 00:53:10;;;;;;;4.43;2.92;;;16.10;99.90;;;;;;4983621;28;20053;-80
2023/06/28 00:55:36;;;;;;;6.55;3.05;;;16.00;99.90;;;;;;4983687;28;20474;-81
2023/06/28 00:58:01;;;;;;;8.52;2.95;;;16.00;99.90;;;;;;4983717;28;20388;-81
2023/06/28 01:00:27;;;;;;;6.00;3.13;;;16.00;99.90;;;;;;4983671;28;20045;-82
2023/06/28 01:02:52;;;;;;;9.00;3.45;;;15.90;99.90;;;;;;4982877;28;20042;-79
2023/06/28 01:05:20;;;;;;;5.68;3.42;;;15.90;99.90;;;;;;4983401;28;20045;-80
2023/06/28 01:07:47;;;;;;;6.05;3.30;;;15.90;99.90;;;;;;4983452;28;21191;-80
2023/06/28 01:10:14;;;;;;;8.13;3.20;;;15.80;99.90;;;;;;4982462;28;20045;-79
2023/06/28 01:12:40;;;;;;;6.25;3.47;;;15.80;99.90;;;;;;4982578;28;20490;-80
2023/06/28 01:15:07;;;;;;;6.95;3.47;;;15.70;99.90;;;;;;4983447;28;20152;-80
2023/06/28 01:17:33;;;;;;;7.93;3.55;;;15.60;99.90;;;;;;4981596;28;21080;-80
2023/06/28 01:19:59;;;;;;;6.22;3.45;;;15.60;99.90;;;;;;4981080;28;20102;-79
2023/06/28 01:22:26;;;;;;;6.55;3.63;;;15.50;99.90;;;;;;4984495;28;20047;-80
2023/06/28 01:24:52;;;;;;;5.35;3.35;;;15.50;99.90;;;;;;4981122;28;20060;-80
2023/06/28 01:27:18;;;;;;;6.28;3.60;;;15.50;99.90;;;;;;4982153;28;20064;-80
2023/06/28 01:29:44;;;;;;;6.70;3.10;;;15.40;99.90;;;;;;4982823;28;20053;-81
2023/06/28 01:32:09;;;;;;;4.82;2.90;;;15.40;99.90;;;;;;4982718;28;20069;-79
2023/06/28 01:34:35;;;;;;;6.15;3.20;;;15.30;99.90;;;;;;4982890;28;20030;-80
2023/06/28 01:37:02;;;;;;;5.97;3.08;;;15.20;99.90;;;;;;4982411;28;20058;-80
2023/06/28 01:39:30;;;;;;;4.68;3.20;;;15.20;99.90;;;;;;4982992;28;20026;-79
2023/06/28 01:41:57;;;;;;;8.95;3.80;;;15.10;99.90;;;;;;4982450;28;20030;-79
2023/06/28 01:44:23;;;;;;;8.10;3.35;;;15.00;99.90;;;;;;4982550;28;20466;-80
2023/06/28 01:46:49;;;;;;;9.82;3.90;;;15.00;99.90;;;;;;4982605;28;20018;-79
2023/06/28 01:49:15;;;;;;;10.30;3.40;;;15.00;99.90;;;;;;5012064;23;20112;-82
2023/06/28 01:51:41;;;;;;;4.97;3.03;;;14.90;99.90;;;;;;5003875;28;20062;-81
2023/06/28 01:54:07;;;;;;;5.78;2.72;;;14.90;99.90;;;;;;4991612;28;20101;-82
2023/06/28 01:56:32;;;;;;;7.28;3.05;;;14.90;99.90;;;;;;4986291;28;20210;-81
2023/06/28 01:58:58;;;;;;;6.50;3.22;;;14.80;99.90;;;;;;4985646;28;20035;-82
2023/06/28 02:01:23;;;;;;;7.18;3.60;;;14.80;99.90;;;;;;4984644;28;20040;-82
2023/06/28 02:03:49;;;;;;;7.90;3.80;;;14.80;99.90;;;;;;4984763;28;20414;-79
2023/06/28 02:06:15;;;;;;;6.15;3.03;;;14.70;99.90;;;;;;4981955;28;20089;-78
2023/06/28 02:08:41;;;;;;;6.20;3.08;;;14.70;99.90;;;;;;4980910;28;20042;-79
2023/06/28 02:11:06;;;;;;;7.45;3.30;;;14.70;99.90;;;;;;4982739;28;20113;-78
2023/06/28 02:13:32;;;;;;;6.80;4.03;;;14.70;99.90;;;;;;4980973;28;20315;-78
2023/06/28 02:15:58;;;;;;;4.22;3.28;;;14.60;99.90;;;;;;4983883;28;20034;-79
2023/06/28 02:18:24;;;;;;;10.98;3.78;;;14.60;99.90;;;;;;4982862;28;20034;-79
2023/06/28 02:20:53;;;;;;;9.75;3.10;;;14.60;99.90;;;;;;4981973;28;20517;-78
2023/06/28 02:23:22;;;;;;;7.28;3.33;;;14.60;99.90;;;;;;4979860;28;20034;-78
2023/06/28 02:25:47;;;;;;;5.57;3.72;;;14.60;99.90;;;;;;4982065;28;20085;-79
2023/06/28 02:28:13;;;;;;;6.45;3.40;;;14.60;99.90;;;;;;4982060;28;20038;-78
2023/06/28 02:30:39;;;;;;;9.70;3.38;;;14.50;99.90;;;;;;4981421;28;20121;-78
2023/06/28 02:33:04;;;;;;;9.00;3.65;;;14.50;99.90;;;;;;4979752;28;21014;-80
2023/06/28 02:35:30;;;;;;;4.97;3.30;;;14.50;99.90;;;;;;4979711;28;20038;-80
2023/06/28 02:37:56;;;;;;;8.65;3.60;;;14.50;99.90;;;;;;4981647;28;20117;-81
2023/06/28 02:40:21;;;;;;;7.63;3.50;;;14.50;99.90;;;;;;4984850;28;20031;-81
2023/06/28 02:42:47;;;;;;;6.05;3.75;;;14.40;99.90;;;;;;4979868;28;21561;-80
2023/06/28 02:45:12;;;;;;;7.28;3.80;;;14.40;99.90;;;;;;4980330;28;20030;-80
2023/06/28 02:47:38;;;;;;;8.05;3.75;;;14.40;99.90;;;;;;4982086;28;20034;-80
2023/06/28 02:50:05;;;;;;;8.57;4.75;;;14.40;99.90;;;;;;4980566;28;20106;-80
2023/06/28 02:52:34;;;;;;;6.15;3.80;;;14.40;99.90;;;;;;4979609;28;20097;-83
2023/06/28 02:55:00;;;;;;;8.80;4.28;;;14.40;99.90;;;;;;4980678;28;20426;-80
2023/06/28 02:57:26;;;;;;;5.47;3.50;;;14.40;99.90;;;;;;4980083;28;20054;-80
2023/06/28 02:59:52;;;;;;;9.35;3.83;;;14.40;99.90;;;;;;4981252;28;20038;-81
2023/06/28 03:02:17;;;;;;;7.88;3.75;;;14.40;99.90;;;;;;4979311;28;20108;-80
2023/06/28 03:04:43;;;;;;;9.98;4.22;;;14.40;99.90;;;;;;4982016;28;20039;-79
2023/06/28 03:07:13;;;;;;;6.82;3.72;;;14.40;99.90;;;;;;4981811;28;20537;-80
2023/06/28 03:09:39;;;;;;;6.22;3.75;;;14.40;99.90;;;;;;4981217;28;20471;-80
2023/06/28 03:12:05;;;;;;;6.15;3.97;;;14.40;99.90;;;;;;4979380;28;20114;-80
2023/06/28 03:14:30;;;;;;;8.60;4.35;;;14.40;99.90;;;;;;4978967;28;20049;-80
2023/06/28 03:16:56;;;;;;;6.43;3.78;;;14.40;99.90;;;;;;4979584;28;20498;-80
2023/06/28 03:19:21;;;;;;;9.50;3.90;;;14.50;99.90;;;;;;4979140;28;20030;-80
2023/06/28 03:21:47;;;;;;;8.57;3.60;;;14.40;99.90;;;;;;4978631;28;20026;-80
2023/06/28 03:24:12;;;;;;;9.73;4.18;;;14.40;99.90;;;;;;4979976;28;20054;-80
2023/06/28 03:26:38;;;;;;;8.00;3.80;;;14.40;99.90;;;;;;4979386;28;20110;-79
2023/06/28 03:29:03;;;;;;;7.63;4.15;;;14.40;99.90;;;;;;4978507;28;20026;-79
2023/06/28 03:31:31;;;;;;;6.28;3.72;;;14.40;99.90;;;;;;4979223;28;20027;-80
2023/06/28 03:33:57;;;;;;;8.95;4.22;;;14.40;99.90;;;;;;4979938;28;20046;-80
2023/06/28 03:36:24;;;;;;;8.25;3.83;;;14.40;99.90;;;;;;4982089;28;20033;-80
2023/06/28 03:38:49;;;;;;;9.90;3.80;;;14.40;99.90;;;;;;4983428;28;20045;-80
2023/06/28 03:41:15;;;;;;;8.20;3.90;;;14.40;99.90;;;;;;4982651;28;20782;-80
2023/06/28 03:43:40;;;;;;;6.75;3.97;;;14.40;99.90;;;;;;4980700;28;20034;-80
2023/06/28 03:46:06;;;;;;;7.32;4.35;;;14.40;99.90;;;;;;4981934;28;20157;-80
2023/06/28 03:48:31;;;;;;;8.05;4.07;;;14.40;99.90;;;;;;4981129;28;20499;-80
2023/06/28 03:50:57;;;;;;;7.60;4.55;;;14.40;99.90;;;;;;4980512;28;20081;-80
2023/06/28 03:53:22;;;;;;;7.55;4.15;;;14.40;99.90;;;;;;4982571;28;20050;-80
2023/06/28 03:55:48;;;;;;;7.25;4.57;;;14.30;99.90;;;;;;4981761;28;20022;-81
2023/06/28 03:58:13;;;;;;;7.22;4.30;;;14.30;99.90;;;;;;4982158;28;20386;-80
2023/06/28 04:00:39;;;;;;;10.52;5.00;;;14.30;99.90;;;;;;4980543;28;20033;-80
2023/06/28 04:03:05;;;;;;;8.90;4.80;;;14.20;99.90;;;;;;4981093;28;20865;-80
2023/06/28 04:05:30;;;;;;;7.70;4.43;;;14.20;99.90;;;;;;4981515;28;20030;-80
2023/06/28 04:07:57;;;;;;;10.98;4.07;;;14.20;99.90;;;;;;4981475;28;20053;-80
2023/06/28 04:10:24;;;;;;;7.82;4.45;;;14.20;99.90;;;;;;4982292;28;20097;-80
2023/06/28 04:12:50;;;;;;;6.68;4.05;;;14.20;99.90;;;;;;4980663;28;20050;-81
2023/06/28 04:15:16;;;;;;;8.48;4.72;;;14.20;99.90;;;;;;4979557;28;20041;-80
2023/06/28 04:17:41;;;;;;;7.95;3.97;;;14.20;99.90;;;;;;4980233;28;20194;-80
2023/06/28 04:20:07;;;;;;;8.15;4.00;;;14.20;99.90;;;;;;4979079;28;20038;-81
2023/06/28 04:22:34;;;;;;;5.93;3.85;;;14.20;99.90;;;;;;4979773;28;20030;-81
2023/06/28 04:24:59;;;;;;;11.10;5.18;;;14.20;99.90;;;;;;4978283;28;20038;-81
2023/06/28 04:27:26;;;;;;;7.82;4.45;;;14.20;99.90;;;;;;4984258;28;20052;-81
2023/06/28 04:29:51;;;;;;;5.38;3.63;;;14.20;99.90;;;;;;4984734;28;20034;-81
2023/06/28 04:32:22;;;;;;;7.82;4.22;;;14.20;99.90;;;;;;4985609;28;20042;-81
2023/06/28 04:34:49;;;;;;;6.60;4.40;;;14.10;99.90;;;;;;4987213;28;20045;-82
2023/06/28 04:37:15;;;;;;;7.00;4.32;;;14.10;99.90;;;;;;4986970;28;20038;-81
2023/06/28 04:39:41;;;;;;;6.80;4.68;;;14.10;99.90;;;;;;4985302;28;20041;-81
2023/06/28 04:42:06;;;;;;;6.72;3.88;;;14.10;99.90;;;;;;4985776;28;20552;-81
2023/06/28 04:44:36;;;;;;;5.88;4.15;;;14.10;99.90;;;;;;4984667;28;20063;-81
2023/06/28 04:47:02;;;;;;;6.72;4.22;;;14.10;99.90;;;;;;4985004;28;20509;-81
2023/06/28 04:49:28;;;;;;;7.32;4.45;;;14.10;99.90;;;;;;4984606;28;20042;-81
2023/06/28 04:51:54;;;;;;;8.55;3.78;;;14.10;99.90;;;;;;4985507;28;20350;-81
2023/06/28 04:54:19;;;;;;;6.10;3.95;;;14.10;99.90;;;;;;4983041;28;20046;-81
2023/06/28 04:56:46;;;;;;;6.53;4.20;;;14.10;99.90;;;;;;4990119;28;20062;-81
2023/06/28 04:59:12;;;;;;;7.40;3.72;;;14.10;99.90;;;;;;4987907;28;20093;-81
2023/06/28 05:01:41;;;;;;;10.15;4.13;;;14.10;99.90;;;;;;4990871;28;20038;-81
2023/06/28 05:04:07;;;;;;;8.68;4.10;;;14.10;99.90;;;;;;4990514;28;20034;-81
2023/06/28 05:06:35;;;;;;;7.75;4.35;;;14.10;99.90;;;;;;4988876;28;20034;-81
2023/06/28 05:09:01;;;;;;;7.88;4.43;;;14.00;99.90;;;;;;4990134;28;20043;-81
2023/06/28 05:11:27;;;;;;;9.95;4.53;;;14.10;99.90;;;;;;4988384;28;20034;-81
2023/06/28 05:13:53;;;;;;;5.95;4.07;;;14.10;99.90;;;;;;4987641;28;20049;-81
2023/06/28 05:16:18;;;;;;;6.85;4.57;;;14.10;99.90;;;;;;4981975;28;20109;-82
2023/06/28 05:18:44;;;;;;;5.53;3.80;;;14.00;99.90;;;;;;4981539;28;20106;-82
2023/06/28 05:21:09;;;;;;;5.20;4.07;;;14.10;99.90;;;;;;4979860;28;21373;-85
2023/06/28 05:23:35;;;;;;;6.35;4.28;;;14.10;99.90;;;;;;4979031;28;21081;-82
2023/06/28 05:26:01;;;;;;;6.43;4.32;;;14.10;99.90;;;;;;4981513;28;20116;-82
2023/06/28 05:28:26;;;;;;;7.65;4.28;;;14.10;99.90;;;;;;4982152;28;20037;-82
2023/06/28 05:30:52;;;;;;;8.43;4.65;;;14.10;99.90;;;;;;4982417;28;20034;-83
2023/06/28 05:33:18;;;;;;;6.43;4.13;;;14.20;99.90;;;;;;4979855;28;20038;-82
2023/06/28 05:35:43;;;;;;;8.00;4.18;;;14.20;99.90;;;;;;4982000;28;20030;-82
2023/06/28 05:38:09;;;;;;;8.27;4.15;;;14.20;99.90;;;;;;4981950;28;21298;-82
2023/06/28 05:40:34;;;;;;;7.32;4.90;;;14.20;99.90;;;;;;4981781;28;20505;-82
2023/06/28 05:43:00;;;;;;;7.72;4.22;;;14.30;99.90;;;;;;4981945;28;20066;-84
2023/06/28 05:45:27;;;;;;;9.00;3.97;;;14.30;99.90;;;;;;4980703;28;20109;-83
2023/06/28 05:47:53;;;;;;;6.40;3.50;;;14.30;99.90;;;;;;4982576;28;20442;-83
2023/06/28 05:50:21;;;;;;;7.57;4.00;;;14.40;99.90;;;;;;4973473;28;20039;-83
2023/06/28 05:52:47;;;;;;;6.85;3.88;;;14.40;99.90;;;;;;4971853;28;20118;-82
2023/06/28 05:55:13;;;;;;;8.07;3.58;;;14.40;99.90;;;;;;4972017;28;20414;-85
2023/06/28 05:57:39;;;;;;;8.20;4.03;;;14.40;99.90;;;;;;4972805;28;20026;-84
2023/06/28 06:00:06;;;;;;;6.53;3.47;;;14.50;99.90;;;;;;4970167;28;20114;-83
2023/06/28 06:02:32;;;;;;;7.97;4.40;;;14.50;99.90;;;;;;4973364;28;20035;-84
2023/06/28 06:04:58;;;;;;;7.13;3.90;;;14.60;99.90;;;;;;4972128;28;20108;-83
2023/06/28 06:07:24;;;;;;;6.80;3.75;;;14.70;99.90;;;;;;4973742;28;20031;-82
2023/06/28 06:09:49;;;;;;;8.60;3.97;;;14.80;99.90;;;;;;4971204;28;21284;-83
2023/06/28 06:12:15;;;;;;;7.60;4.40;;;14.80;99.90;;;;;;4971626;28;20053;-84
2023/06/28 06:14:40;;;;;;;6.32;3.92;;;14.90;99.90;;;;;;4971673;28;20054;-85
2023/06/28 06:17:06;;;;;;;10.00;4.13;;;14.90;99.90;;;;;;4972497;28;20089;-86
2023/06/28 06:19:31;;;;;;;6.07;4.18;;;14.90;99.90;;;;;;4972599;28;20046;-84
2023/06/28 06:21:57;;;;;;;6.60;4.03;;;15.00;99.90;;;;;;4972555;28;20038;-82
2023/06/28 06:24:22;;;;;;;6.78;4.22;;;15.10;99.90;;;;;;4971820;28;20160;-83
2023/06/28 06:26:48;;;;;;;8.45;3.97;;;15.10;99.90;;;;;;4969521;28;20035;-83
2023/06/28 06:29:13;;;;;;;9.82;3.67;;;15.20;99.90;;;;;;4972139;28;20043;-83
2023/06/28 06:31:39;;;;;;;8.68;3.38;;;15.30;99.90;;;;;;4973773;28;21660;-84
2023/06/28 06:34:04;;;;;;;8.00;3.95;;;15.40;99.90;;;;;;4972839;28;20506;-84
2023/06/28 06:36:30;;;;;;;4.65;3.50;;;15.40;99.90;;;;;;4972505;28;20046;-86
2023/06/28 06:38:57;;;;;;;6.80;3.55;;;15.50;99.90;;;;;;4974609;28;20053;-84
2023/06/28 06:41:22;;;;;;;7.35;3.90;;;15.50;99.90;;;;;;4972904;28;20121;-84
2023/06/28 06:43:48;;;;;;;7.40;3.80;;;15.70;99.90;;;;;;4973877;28;20102;-84
2023/06/28 06:46:14;;;;;;;6.03;3.25;;;15.70;99.90;;;;;;4971274;28;20034;-84
2023/06/28 06:48:39;;;;;;;8.43;3.80;;;15.80;99.90;;;;;;4974399;28;20509;-86
2023/06/28 06:51:06;;;;;;;6.35;3.45;;;15.80;99.90;;;;;;4975825;28;20034;-83
2023/06/28 06:53:32;;;;;;;6.28;3.70;;;15.90;99.90;;;;;;4975435;28;20074;-84
2023/06/28 06:55:58;;;;;;;6.05;3.83;;;16.00;99.90;;;;;;4974901;28;20062;-85
2023/06/28 06:58:23;;;;;;;8.02;3.80;;;16.10;99.90;;;;;;4977608;28;20046;-83
2023/06/28 07:00:51;;;;;;;5.63;3.58;;;16.10;99.90;;;;;;4976572;28;20034;-85
2023/06/28 07:03:20;;;;;;;4.63;2.95;;;16.30;99.90;;;;;;4976802;28;20969;-84
2023/06/28 07:05:45;;;;;;;6.47;3.30;;;16.40;99.90;;;;;;4974911;28;20026;-83
2023/06/28 07:08:11;;;;;;;4.13;2.70;;;16.40;99.90;;;;;;4979505;28;20041;-83
2023/06/28 07:10:36;;;;;;;3.97;2.95;;;16.50;99.90;;;;;;4975715;28;20026;-84
2023/06/28 07:13:02;;;;;;;5.00;3.08;;;16.50;99.90;;;;;;4977198;28;20046;-84
2023/06/28 07:15:27;;;;;;;4.65;2.63;;;16.50;99.90;;;;;;4976318;28;20074;-85
2023/06/28 07:17:53;;;;;;;5.95;3.20;;;16.60;99.90;;;;;;4981651;28;20038;-83
2023/06/28 07:20:20;;;;;;;9.82;3.30;;;16.70;99.90;;;;;;4976118;28;20030;-84
2023/06/28 07:22:45;;;;;;;6.93;3.47;;;16.70;99.90;;;;;;4973180;28;20049;-83
2023/06/28 07:25:12;;;;;;;8.05;3.85;;;16.80;99.90;;;;;;4971634;28;20034;-83
2023/06/28 07:27:38;;;;;;;5.90;3.20;;;16.80;99.90;;;;;;4977945;28;20589;-85
2023/06/28 07:30:06;;;;;;;6.75;3.40;;;16.80;99.90;;;;;;4977741;28;20041;-85
2023/06/28 07:32:31;;;;;;;5.93;3.05;;;16.80;99.90;;;;;;4970276;28;20165;-86
2023/06/28 07:34:57;;;;;;;7.38;3.17;;;16.90;99.90;;;;;;4967576;28;20037;-85
2023/06/28 07:37:23;;;;;;;6.10;2.85;;;16.90;99.90;;;;;;4971630;28;20180;-84
2023/06/28 07:39:48;;;;;;;7.75;2.97;;;17.00;99.90;;;;;;4972252;28;20150;-84
2023/06/28 07:42:14;;;;;;;6.35;2.95;;;17.10;99.90;;;;;;4972617;28;20043;-85
2023/06/28 07:44:40;;;;;;;10.05;3.40;;;17.10;99.90;;;;;;4972163;28;20038;-84
2023/06/28 07:47:06;;;;;;;5.25;2.70;;;17.20;99.90;;;;;;4972194;28;20050;-85
2023/06/28 07:49:31;;;;;;;5.95;3.00;;;17.20;99.90;;;;;;4972661;28;20178;-85
2023/06/28 07:51:58;;;;;;;5.22;2.53;;;17.20;99.90;;;;;;4967383;28;20038;-85
2023/06/28 07:54:23;;;;;;;7.13;3.80;;;17.40;99.90;;;;;;4974021;28;20046;-83
2023/06/28 07:56:49;;;;;;;7.10;3.22;;;17.50;99.90;;;;;;4972827;28;20038;-83
2023/06/28 07:59:15;;;;;;;4.07;2.65;;;17.60;99.90;;;;;;4974370;28;20030;-84
2023/06/28 08:01:43;;;;;;;7.03;3.58;;;17.60;99.90;;;;;;5036389;23;20057;-76
2023/06/28 08:04:20;;;;;;;8.85;3.17;;;17.70;99.90;;;;;;4981500;28;20076;-76
2023/06/28 08:06:46;;;;;;;4.97;2.83;;;17.80;99.90;;;;;;4969481;28;20039;-77
2023/06/28 08:09:12;;;;;;;4.85;2.92;;;17.90;99.90;;;;;;4973356;28;20066;-77
2023/06/28 08:11:37;;;;;;;5.55;3.00;;;18.00;99.90;;;;;;4971950;28;20035;-79
2023/06/28 08:14:04;;;;;;;7.47;3.30;;;18.20;99.90;;;;;;4970328;28;20050;-78
2023/06/28 08:16:30;;;;;;;7.22;3.67;;;18.30;99.90;;;;;;4971066;28;20038;-78
2023/06/28 08:18:55;;;;;;;7.30;3.22;;;18.30;99.90;;;;;;4983112;28;20061;-78
2023/06/28 08:21:21;;;;;;;4.93;3.08;;;18.50;99.90;;;;;;4985644;28;20094;-77
2023/06/28 08:23:46;;;;;;;6.38;3.33;;;18.70;99.90;;;;;;4983111;28;20078;-78
2023/06/28 08:26:12;;;;;;;7.32;3.42;;;18.90;99.90;;;;;;4984884;28;20030;-77
2023/06/28 08:28:38;;;;;;;5.20;3.00;;;19.00;99.90;;;;;;4984736;28;20406;-77
2023/06/28 08:31:03;;;;;;;5.80;2.90;;;19.00;99.90;;;;;;4985425;28;20572;-77
2023/06/28 08:33:29;;;;;;;7.65;3.10;;;19.20;99.90;;;;;;4981224;28;20054;-79
2023/06/28 08:35:55;;;;;;;4.22;2.78;;;19.30;99.90;;;;;;4978875;28;20039;-78
2023/06/28 08:38:20;;;;;;;5.32;2.80;;;19.50;99.90;;;;;;4982585;28;20109;-79
2023/06/28 08:40:46;;;;;;;7.43;2.63;;;19.50;99.90;;;;;;4982572;28;20181;-80
2023/06/28 08:43:15;;;;;;;8.70;3.35;;;19.50;99.90;;;;;;4981685;28;20066;-79
2023/06/28 08:45:43;;;;;;;6.55;2.95;;;19.60;99.90;;;;;;4983385;28;20026;-78
2023/06/28 08:48:09;;;;;;;6.07;3.22;;;19.60;99.90;;;;;;4984255;28;20026;-79
2023/06/28 08:50:38;;;;;;;6.13;2.80;;;19.80;99.90;;;;;;4982574;28;20062;-79
2023/06/28 08:53:09;;;;;;;5.82;2.33;;;20.00;99.90;;;;;;4983037;28;20102;-78
2023/06/28 08:55:36;;;;;;;5.75;2.30;;;20.20;99.90;;;;;;4984233;28;20026;-80
2023/06/28 08:58:05;;;;;;;5.47;2.80;;;20.20;99.90;;;;;;4983487;28;20031;-78
2023/06/28 09:00:30;;;;;;;5.07;2.55;;;20.10;99.90;;;;;;4983958;28;20034;-77
2023/06/28 09:02:57;;;;;;;6.93;2.38;;;20.10;99.90;;;;;;4981754;28;20095;-80
2023/06/28 09:05:23;;;;;;;5.25;2.40;;;20.20;99.90;;;;;;4981262;28;20106;-80
2023/06/28 09:07:52;;;;;;;5.57;2.30;;;20.30;99.90;;;;;;4983121;28;20734;-80
2023/06/28 09:10:18;;;;;;;4.22;2.65;;;20.40;99.90;;;;;;4981333;28;20041;-79
2023/06/28 09:12:45;;;;;;;5.57;2.50;;;20.30;99.90;;;;;;4980075;28;20148;-78
2023/06/28 09:15:11;;;;;;;5.22;2.40;;;20.30;99.90;;;;;;4978633;28;20157;-79
2023/06/28 09:17:36;;;;;;;8.73;2.58;;;20.20;99.90;;;;;;4982971;28;20098;-78
2023/06/28 09:20:16;;;;;;;3.40;2.10;;;20.20;99.90;;;;;;4982279;28;20108;-78
2023/06/28 09:22:41;;;;;;;4.68;1.98;;;20.20;99.90;;;;;;4979542;28;20030;-78
2023/06/28 09:25:07;;;;;;;6.90;3.08;;;20.30;99.90;;;;;;4978748;28;20030;-79
2023/06/28 09:27:32;;;;;;;5.82;2.50;;;20.50;99.90;;;;;;4981221;28;20069;-79
2023/06/28 09:30:02;;;;;;;7.80;2.42;;;20.80;99.90;;;;;;4979419;28;20045;-80
2023/06/28 09:34:58;;;;;;;5.32;2.55;;;21.00;99.90;;;;;;5002501;23;20046;-79
2023/06/28 09:37:24;;;;;;;6.65;2.42;;;21.10;99.90;;;;;;4998770;28;20037;-79
2023/06/28 09:39:49;;;;;;;6.05;2.47;;;21.10;99.90;;;;;;5000578;28;20037;-80
2023/06/28 09:42:15;;;;;;;3.90;2.13;;;21.30;99.90;;;;;;4998265;28;20591;-79
2023/06/28 09:44:55;;;;;;;8.38;2.60;;;21.60;99.90;;;;;;4981052;28;20030;-78
2023/06/28 09:47:31;;;;;;;5.07;2.20;;;21.80;99.90;;;;;;4982054;28;20039;-78
2023/06/28 09:50:00;;;;;;;6.35;2.60;;;22.10;99.90;;;;;;4982296;28;20157;-79
2023/06/28 09:52:26;;;;;;;6.68;2.80;;;22.20;99.90;;;;;;4985641;28;20040;-81
2023/06/28 09:54:56;;;;;;;7.03;2.45;;;22.20;99.90;;;;;;4987078;28;20054;-78
2023/06/28 09:57:23;;;;;;;5.10;2.10;;;22.10;99.90;;;;;;4988366;28;20019;-77
2023/06/28 09:59:52;;;;;;;4.85;2.30;;;22.10;99.90;;;;;;4988390;28;20037;-77
2023/06/28 10:02:22;;;;;;;5.68;2.40;;;22.00;99.90;;;;;;4987871;28;20026;-77
2023/06/28 10:04:50;;;;;;;4.57;2.42;;;21.80;99.90;;;;;;4985566;28;20085;-78
2023/06/28 10:07:16;;;;;;;5.25;2.50;;;21.70;99.90;;;;;;4985733;28;20046;-77
2023/06/28 10:09:42;;;;;;;7.15;3.03;;;21.50;99.90;;;;;;4984941;28;21354;-77
2023/06/28 10:12:24;;;;;;;5.47;2.40;;;21.30;99.90;;;;;;4986380;28;20109;-75
2023/06/28 10:14:55;;;;;;;4.47;2.28;;;21.10;99.90;;;;;;4985376;28;20039;-78
2023/06/28 10:17:21;;;;;;;4.35;2.15;;;21.10;99.90;;;;;;4987485;28;20022;-78
2023/06/28 10:19:48;;;;;;;6.53;2.28;;;21.10;99.90;;;;;;4987452;28;20523;-77
2023/06/28 10:22:15;;;;;;;5.57;2.10;;;21.20;99.90;;;;;;4989732;28;20046;-76
2023/06/28 10:24:42;;;;;;;7.25;2.10;;;21.10;99.90;;;;;;4985775;28;20030;-77
2023/06/28 10:27:08;;;;;;;4.47;2.10;;;21.20;99.90;;;;;;4987418;28;20552;-79
2023/06/28 10:29:35;;;;;;;3.92;2.03;;;21.50;99.90;;;;;;4989642;28;20031;-77
2023/06/28 10:32:01;;;;;;;6.20;2.13;;;21.80;99.90;;;;;;4991289;28;20089;-77
2023/06/28 10:34:28;;;;;;;4.72;2.10;;;22.00;99.90;;;;;;4990485;28;20050;-79
2023/06/28 10:36:56;;;;;;;5.43;2.20;;;22.10;99.90;;;;;;4989615;28;20053;-77
2023/06/28 10:39:21;;;;;;;5.20;2.10;;;22.40;99.90;;;;;;4977187;28;20030;-77
2023/06/28 10:41:54;;;;;;;4.57;2.05;;;22.80;99.90;;;;;;4975783;28;20033;-73
2023/06/28 10:44:20;;;;;;;3.42;1.80;;;23.10;99.90;;;;;;4975073;28;20987;-73
2023/06/28 10:46:46;;;;;;;6.93;2.47;;;23.30;99.90;;;;;;4975770;28;20084;-73
2023/06/28 10:49:11;;;;;;;6.32;2.35;;;23.90;99.90;;;;;;4976049;28;21516;-73
2023/06/28 10:51:37;;;;;;;4.47;2.17;;;24.10;99.90;;;;;;4974901;28;20030;-73
2023/06/28 10:54:12;;;;;;;5.80;2.13;;;24.50;99.90;;;;;;4971889;28;20038;-73
2023/06/28 10:56:42;;;;;;;4.35;1.88;;;24.70;99.90;;;;;;4974491;28;20724;-73
2023/06/28 10:59:08;;;;;;;4.95;2.00;;;24.90;99.90;;;;;;4975524;28;20537;-73
2023/06/28 11:01:53;;;;;;;5.00;1.90;;;24.90;99.90;;;;;;4974516;28;20031;-74
2023/06/28 11:04:22;;;;;;;6.53;1.83;;;25.00;99.90;;;;;;4974845;28;20036;-73
2023/06/28 11:06:48;;;;;;;7.10;2.10;;;25.20;99.90;;;;;;4973812;28;20038;-74
2023/06/28 11:09:16;;;;;;;5.18;2.40;;;25.40;99.90;;;;;;4975626;28;20557;-74
2023/06/28 11:11:54;;;;;;;5.68;2.08;;;25.30;99.90;;;;;;4974186;28;20882;-73
2023/06/28 11:14:25;;;;;;;3.80;1.80;;;25.00;99.90;;;;;;4973701;28;20229;-73
2023/06/28 11:16:53;;;;;;;5.80;2.33;;;24.80;99.90;;;;;;4973411;28;20035;-73
2023/06/28 11:19:22;;;;;;;3.88;2.30;;;24.50;99.90;;;;;;4974960;28;20028;-74
2023/06/28 11:22:02;;;;;;;4.85;2.33;;;24.50;99.90;;;;;;4976105;28;20498;-74
2023/06/28 11:24:36;;;;;;;8.02;2.08;;;24.20;99.90;;;;;;4975958;28;20088;-73
2023/06/28 11:27:02;;;;;;;5.72;1.65;;;24.10;99.90;;;;;;4974511;28;20093;-74
2023/06/28 11:29:28;;;;;;;4.10;2.40;;;23.90;99.90;;;;;;4975358;28;20211;-73
2023/06/28 11:31:57;;;;;;;3.17;2.47;;;23.60;99.90;;;;;;4974620;28;20061;-73
2023/06/28 11:34:24;;;;;;;6.28;2.22;;;23.70;99.90;;;;;;4976066;28;20049;-74
2023/06/28 11:36:51;;;;;;;4.53;2.05;;;23.90;99.90;;;;;;4974875;28;20033;-74
2023/06/28 11:39:21;;;;;;;6.10;2.60;;;24.40;99.90;;;;;;4976038;28;20130;-73
2023/06/28 11:41:47;;;;;;;6.30;2.75;;;24.60;99.90;;;;;;4972245;28;20956;-73
2023/06/28 11:44:13;;;;;;;6.65;2.45;;;24.40;99.90;;;;;;4975016;28;20034;-74
2023/06/28 11:46:40;;;;;;;4.57;1.92;;;24.00;99.90;;;;;;4976777;28;20380;-74
2023/06/28 11:49:10;;;;;;;5.82;2.10;;;23.80;99.90;;;;;;4976317;28;20640;-74
2023/06/28 11:51:35;;;;;;;5.63;2.17;;;23.40;99.90;;;;;;4975962;28;20471;-74
2023/06/28 11:54:05;;;;;;;5.80;2.53;;;23.30;99.90;;;;;;4974451;28;20123;-73
2023/06/28 11:56:35;;;;;;;3.85;2.00;;;23.40;99.90;;;;;;4969859;28;20038;-74
2023/06/28 11:59:17;;;;;;;4.80;2.42;;;23.70;99.90;;;;;;4968693;28;20042;-74
2023/06/28 12:01:47;;;;;;;3.80;2.20;;;23.90;99.90;;;;;;4971427;28;20093;-73
2023/06/28 12:04:20;;;;;;;3.42;2.08;;;23.70;99.90;;;;;;4970744;28;20081;-74
2023/06/28 12:06:46;;;;;;;7.05;2.67;;;23.40;99.90;;;;;;4979911;28;20018;-74
2023/06/28 12:09:39;;;;;;;5.25;2.80;;;23.40;99.90;;;;;;4977351;28;20034;-73
2023/06/28 12:12:06;;;;;;;7.20;2.38;;;23.90;99.90;;;;;;4975456;28;20070;-73
2023/06/28 12:14:39;;;;;;;5.63;2.35;;;24.40;99.90;;;;;;4983624;28;20041;-79
2023/06/28 12:17:05;;;;;;;5.30;2.35;;;25.10;99.90;;;;;;4982888;28;20030;-80
2023/06/28 12:19:35;;;;;;;4.57;2.10;;;25.80;99.90;;;;;;4984109;28;20034;-80
2023/06/28 12:22:07;;;;;;;4.78;2.00;;;26.40;99.90;;;;;;4981822;28;20026;-80
2023/06/28 12:24:34;;;;;;;4.55;2.15;;;26.90;99.10;;;;;;4984147;28;20034;-79
2023/06/28 12:27:05;;;;;;;3.63;2.20;;;26.60;99.90;;;;;;4983595;28;20029;-80
2023/06/28 12:29:32;;;;;;;3.88;1.95;;;26.50;99.90;;;;;;4982161;28;20035;-79
2023/06/28 12:32:07;;;;;;;5.05;2.00;;;26.50;99.90;;;;;;4981682;28;20433;-79
2023/06/28 12:34:34;;;;;;;5.03;1.80;;;26.40;98.80;;;;;;4981883;28;20068;-81
2023/06/28 12:37:12;;;;;;;6.05;2.00;;;26.80;98.80;;;;;;4973868;28;20030;-80
2023/06/28 12:39:39;;;;;;;4.53;2.10;;;27.40;98.40;;;;;;4975667;28;20395;-78
2023/06/28 12:42:18;;;;;;;4.78;1.80;;;27.20;97.10;;;;;;4975577;28;20431;-79
2023/06/28 12:44:50;;;;;;;3.97;1.63;;;27.30;96.00;;;;;;4977345;28;20117;-78
2023/06/28 12:47:21;;;;;;;5.07;2.10;;;26.90;96.60;;;;;;4975515;28;20237;-80